Time;durP1;ratioP1;P1;durP2;ratioP2;P2;SDS_P1;SDS_P2;PMS_P1;PMS_P2;Temp;Humidity;BMP_temperature;BMP_pressure;BME280_temperature;BME280_humidity;BME280_pressure;Samples;Min_cycle;Max_cycle;Signal;HPM_P1;HPM_P2
2021/03/14 00:00:13;;;;;;;;;;;19.70;54.50;;;;;;5031959;28;1339;-68
2021/03/14 00:02:39;;;;;;;;;;;19.70;54.50;;;;;;5031918;28;1328;-69
2021/03/14 00:05:04;;;;;;;;;;;19.70;54.60;;;;;;5031502;28;1932;-68
2021/03/14 00:07:30;;;;;;;;;;;19.70;54.50;;;;;;5031490;28;1300;-69
2021/03/14 00:09:55;;;;;;;;;;;19.70;54.60;;;;;;5032078;28;1254;-69
2021/03/14 00:12:21;;;;;;;;;;;19.70;54.60;;;;;;5031369;28;1284;-69
2021/03/14 00:14:46;;;;;;;;;;;19.70;54.60;;;;;;5031387;28;1083;-68
2021/03/14 00:17:12;;;;;;;;;;;19.70;54.60;;;;;;5045914;28;1036;-71
2021/03/14 00:19:37;;;;;;;;;;;19.60;54.60;;;;;;5031592;28;1398;-68
2021/03/14 00:22:02;;;;;;;;;;;19.70;54.60;;;;;;5031316;28;1300;-68
2021/03/14 00:24:28;;;;;;;;;;;19.60;54.60;;;;;;5031764;28;1910;-68
2021/03/14 00:26:53;;;;;;;;;;;19.60;54.60;;;;;;5031882;28;1124;-70
2021/03/14 00:29:19;;;;;;;;;;;19.60;54.60;;;;;;5031298;28;1076;-69
2021/03/14 00:31:44;;;;;;;;;;;19.70;54.70;;;;;;5046647;28;1346;-70
2021/03/14 00:34:09;;;;;;;;;;;19.60;54.70;;;;;;5049955;28;1084;-70
2021/03/14 00:36:35;;;;;;;;;;;19.60;54.70;;;;;;5034620;28;1346;-70
2021/03/14 00:39:00;;;;;;;;;;;19.60;54.70;;;;;;5034034;28;1077;-69
2021/03/14 00:41:26;;;;;;;;;;;19.60;54.70;;;;;;5035091;28;1278;-70
2021/03/14 00:43:51;;;;;;;;;;;19.60;54.70;;;;;;5034630;28;1087;-70
2021/03/14 00:46:17;;;;;;;;;;;19.60;54.70;;;;;;5035149;28;1957;-69
2021/03/14 00:48:42;;;;;;;;;;;19.60;54.70;;;;;;5049165;28;1273;-70
2021/03/14 00:51:07;;;;;;;;;;;19.60;54.80;;;;;;5034488;28;1367;-69
2021/03/14 00:53:33;;;;;;;;;;;19.60;54.80;;;;;;5050226;28;1298;-69
2021/03/14 00:55:58;;;;;;;;;;;19.50;54.70;;;;;;5034195;28;1372;-70
2021/03/14 00:58:24;;;;;;;;;;;19.60;54.80;;;;;;5034105;28;1277;-69
2021/03/14 01:00:49;;;;;;;;;;;19.60;54.80;;;;;;5034834;28;1279;-69
2021/03/14 01:03:15;;;;;;;;;;;19.60;54.80;;;;;;5034384;28;1353;-69
2021/03/14 01:05:40;;;;;;;;;;;19.50;54.80;;;;;;5033431;28;1903;-69
2021/03/14 01:08:05;;;;;;;;;;;19.50;54.80;;;;;;5049119;28;1052;-69
2021/03/14 01:10:31;;;;;;;;;;;19.50;54.80;;;;;;5033020;28;1221;-70
2021/03/14 01:12:56;;;;;;;;;;;19.50;55.40;;;;;;5033930;28;1323;-69
2021/03/14 01:15:22;;;;;;;;;;;19.50;54.90;;;;;;5034135;28;1256;-69
2021/03/14 01:17:47;;;;;;;;;;;19.50;54.90;;;;;;5048952;28;1417;-70
2021/03/14 01:20:14;;;;;;;;;;;19.50;54.90;;;;;;5034588;28;1118;-69
2021/03/14 01:22:40;;;;;;;;;;;19.50;54.90;;;;;;5049743;28;1369;-69
2021/03/14 01:25:06;;;;;;;;;;;19.50;54.90;;;;;;5033973;28;1910;-71
2021/03/14 01:27:31;;;;;;;;;;;19.50;54.90;;;;;;5048685;28;1357;-71
2021/03/14 01:29:57;;;;;;;;;;;19.50;54.90;;;;;;5032708;28;1429;-69
2021/03/14 01:32:22;;;;;;;;;;;19.50;54.90;;;;;;5049349;28;2023;-69
2021/03/14 01:34:48;;;;;;;;;;;19.50;55.00;;;;;;5033603;28;1354;-70
2021/03/14 01:37:14;;;;;;;;;;;19.50;55.00;;;;;;5033381;28;1254;-71
2021/03/14 01:39:40;;;;;;;;;;;19.50;54.90;;;;;;5049384;28;1385;-71
2021/03/14 01:42:05;;;;;;;;;;;19.50;55.00;;;;;;5033445;28;1303;-71
2021/03/14 01:44:31;;;;;;;;;;;19.50;55.00;;;;;;5032810;28;1960;-71
2021/03/14 01:46:56;;;;;;;;;;;19.50;55.00;;;;;;5033360;28;1321;-71
2021/03/14 01:49:22;;;;;;;;;;;19.50;55.00;;;;;;5031748;28;1294;-70
2021/03/14 01:51:47;;;;;;;;;;;19.50;55.00;;;;;;5033398;28;1291;-71
2021/03/14 01:54:12;;;;;;;;;;;19.50;55.00;;;;;;5049341;28;1273;-70
2021/03/14 01:56:38;;;;;;;;;;;19.50;55.00;;;;;;5033497;28;1334;-71
2021/03/14 01:59:03;;;;;;;;;;;19.40;55.00;;;;;;5048332;28;1265;-70
2021/03/14 02:01:29;;;;;;;;;;;19.40;55.00;;;;;;5032975;28;1393;-70
2021/03/14 02:03:54;;;;;;;;;;;19.40;55.00;;;;;;5048722;28;1072;-71
2021/03/14 02:06:20;;;;;;;;;;;19.40;55.00;;;;;;5033121;28;1955;-70
2021/03/14 02:08:45;;;;;;;;;;;19.40;55.00;;;;;;5032545;28;1306;-70
2021/03/14 02:11:10;;;;;;;;;;;19.40;55.00;;;;;;5033225;28;1336;-70
2021/03/14 02:13:37;;;;;;;;;;;19.40;55.00;;;;;;5032997;28;1244;-70
2021/03/14 02:16:06;;;;;;;;;;;19.40;55.00;;;;;;5048801;28;1170;-70
2021/03/14 02:18:31;;;;;;;;;;;19.40;55.00;;;;;;5048096;28;1158;-69
2021/03/14 02:20:56;;;;;;;;;;;19.40;55.60;;;;;;5048555;28;1326;-68
2021/03/14 02:23:40;;;;;;;;;;;19.40;55.00;;;;;;5032577;28;1400;-68
2021/03/14 02:26:07;;;;;;;;;;;19.40;55.10;;;;;;5032954;28;1914;-68
2021/03/14 02:28:33;;;;;;;;;;;19.40;55.10;;;;;;5047367;28;1354;-68
2021/03/14 02:30:58;;;;;;;;;;;19.40;55.10;;;;;;5031914;28;1170;-69
2021/03/14 02:33:25;;;;;;;;;;;19.40;55.10;;;;;;5047903;28;1547;-68
2021/03/14 02:35:51;;;;;;;;;;;19.40;55.10;;;;;;5032983;28;1259;-67
2021/03/14 02:38:16;;;;;;;;;;;19.40;55.10;;;;;;5047212;28;1326;-67
2021/03/14 02:40:42;;;;;;;;;;;19.40;55.10;;;;;;5047965;28;1373;-68
2021/03/14 02:43:07;;;;;;;;;;;19.40;55.10;;;;;;5047492;28;1366;-68
2021/03/14 02:45:33;;;;;;;;;;;19.40;55.10;;;;;;5033015;28;1898;-69
2021/03/14 02:47:58;;;;;;;;;;;19.40;55.10;;;;;;5032076;28;1104;-68
2021/03/14 02:50:24;;;;;;;;;;;19.40;55.00;;;;;;5048072;28;1226;-68
2021/03/14 02:52:49;;;;;;;;;;;19.40;55.00;;;;;;5032371;28;1315;-68
2021/03/14 02:55:15;;;;;;;;;;;19.40;55.00;;;;;;5047346;28;1300;-69
2021/03/14 02:57:40;;;;;;;;;;;19.40;54.90;;;;;;5030442;28;1367;-68
2021/03/14 03:00:07;;;;;;;;;;;19.50;55.00;;;;;;5047689;28;1049;-69
2021/03/14 03:02:32;;;;;;;;;;;19.50;54.90;;;;;;5031839;28;1355;-67
2021/03/14 03:04:58;;;;;;;;;;;19.50;54.90;;;;;;5047365;28;1898;-68
2021/03/14 03:07:23;;;;;;;;;;;19.50;54.90;;;;;;5032099;28;1276;-68
2021/03/14 03:09:49;;;;;;;;;;;19.50;54.80;;;;;;5047731;28;1240;-68
2021/03/14 03:12:14;;;;;;;;;;;19.50;54.80;;;;;;5047308;28;1333;-68
2021/03/14 03:14:40;;;;;;;;;;;19.50;54.80;;;;;;5032598;28;1084;-68
2021/03/14 03:17:05;;;;;;;;;;;19.50;54.80;;;;;;5047256;28;1127;-68
2021/03/14 03:19:31;;;;;;;;;;;19.50;54.70;;;;;;5032505;28;1291;-68
2021/03/14 03:21:56;;;;;;;;;;;19.50;54.70;;;;;;5042217;28;1285;-69
2021/03/14 03:24:22;;;;;;;;;;;19.50;54.70;;;;;;5028394;28;1898;-68
2021/03/14 03:26:48;;;;;;;;;;;19.50;54.70;;;;;;5031063;28;1205;-68
2021/03/14 03:29:17;;;;;;;;;;;19.50;54.70;;;;;;5029350;28;1335;-70
2021/03/14 03:31:43;;;;;;;;;;;19.50;54.70;;;;;;5030485;28;1221;-68
2021/03/14 03:34:09;;;;;;;;;;;19.50;54.70;;;;;;5031049;28;1303;-68
2021/03/14 03:36:34;;;;;;;;;;;19.50;54.70;;;;;;5047085;28;1263;-67
2021/03/14 03:39:00;;;;;;;;;;;19.50;54.60;;;;;;5031091;28;1294;-67
2021/03/14 03:41:25;;;;;;;;;;;19.60;54.60;;;;;;5046602;28;1335;-67
2021/03/14 03:43:51;;;;;;;;;;;19.60;54.50;;;;;;5031324;28;1520;-68
2021/03/14 03:46:16;;;;;;;;;;;19.70;54.40;;;;;;5046207;28;1902;-68
2021/03/14 03:48:46;;;;;;;;;;;19.80;54.30;;;;;;5046411;28;1107;-69
2021/03/14 03:51:11;;;;;;;;;;;19.90;54.10;;;;;;5031650;28;1305;-68
2021/03/14 03:53:38;;;;;;;;;;;20.00;53.90;;;;;;5047224;28;1687;-69
2021/03/14 03:56:03;;;;;;;;;;;20.10;53.70;;;;;;5046917;28;1357;-69
2021/03/14 03:58:29;;;;;;;;;;;20.20;53.50;;;;;;5030645;28;1040;-70
2021/03/14 04:00:55;;;;;;;;;;;20.30;53.20;;;;;;5032055;28;1363;-70
2021/03/14 04:03:21;;;;;;;;;;;20.40;53.10;;;;;;5046894;28;1225;-69
2021/03/14 04:05:46;;;;;;;;;;;20.50;52.90;;;;;;5047127;28;1910;-70
2021/03/14 04:08:12;;;;;;;;;;;20.60;52.70;;;;;;5032739;28;1354;-70
2021/03/14 04:10:37;;;;;;;;;;;20.60;52.50;;;;;;5033963;28;1286;-70
2021/03/14 04:13:03;;;;;;;;;;;20.70;52.40;;;;;;5051090;28;1256;-70
2021/03/14 04:15:29;;;;;;;;;;;20.80;52.30;;;;;;5047493;28;1267;-70
2021/03/14 04:17:54;;;;;;;;;;;20.80;52.10;;;;;;5040913;28;1390;-69
2021/03/14 04:20:21;;;;;;;;;;;20.80;52.00;;;;;;5050834;28;1139;-69
2021/03/14 04:22:47;;;;;;;;;;;20.90;51.90;;;;;;5035393;28;1293;-69
2021/03/14 04:25:13;;;;;;;;;;;20.90;51.90;;;;;;5050032;28;1963;-69
2021/03/14 04:27:39;;;;;;;;;;;21.00;51.80;;;;;;5033632;28;1130;-68
2021/03/14 04:30:05;;;;;;;;;;;21.00;51.70;;;;;;5050787;28;1174;-70
2021/03/14 04:32:30;;;;;;;;;;;21.00;51.60;;;;;;5035276;28;1453;-69
2021/03/14 04:34:56;;;;;;;;;;;21.10;51.60;;;;;;5050254;28;1123;-70
2021/03/14 04:37:21;;;;;;;;;;;21.10;51.60;;;;;;5050151;28;1113;-69
2021/03/14 04:39:47;;;;;;;;;;;21.10;51.50;;;;;;5034905;28;1289;-69
2021/03/14 04:42:12;;;;;;;;;;;21.10;51.50;;;;;;5035311;28;1335;-70
2021/03/14 04:44:37;;;;;;;;;;;21.20;51.50;;;;;;5049693;28;1894;-69
2021/03/14 04:47:03;;;;;;;;;;;21.20;51.40;;;;;;5050594;28;1174;-69
2021/03/14 04:49:29;;;;;;;;;;;21.20;51.40;;;;;;5050266;28;1113;-70
2021/03/14 04:51:54;;;;;;;;;;;21.20;51.30;;;;;;5050627;28;1376;-70
2021/03/14 04:54:20;;;;;;;;;;;21.30;51.40;;;;;;5049888;28;1358;-70
2021/03/14 04:56:45;;;;;;;;;;;21.20;51.30;;;;;;5034467;28;1049;-70
2021/03/14 04:59:11;;;;;;;;;;;21.30;51.40;;;;;;5032815;28;1084;-69
2021/03/14 05:01:40;;;;;;;;;;;21.30;51.40;;;;;;5035058;28;1286;-70
2021/03/14 05:04:06;;;;;;;;;;;21.30;51.40;;;;;;5034814;28;1267;-70
2021/03/14 05:06:31;;;;;;;;;;;21.30;51.40;;;;;;5049775;28;1906;-70
2021/03/14 05:08:57;;;;;;;;;;;21.20;51.40;;;;;;5049699;28;1041;-70
2021/03/14 05:11:22;;;;;;;;;;;21.30;51.40;;;;;;5034086;28;1342;-70
2021/03/14 05:13:48;;;;;;;;;;;21.30;51.50;;;;;;5049959;28;1120;-71
2021/03/14 05:16:14;;;;;;;;;;;21.20;51.40;;;;;;5050029;28;1119;-70
2021/03/14 05:18:39;;;;;;;;;;;21.20;51.50;;;;;;5049752;28;1122;-70
2021/03/14 05:21:05;;;;;;;;;;;21.20;51.50;;;;;;5049453;28;1299;-70
2021/03/14 05:23:31;;;;;;;;;;;21.20;51.60;;;;;;5049288;28;1209;-71
2021/03/14 05:25:56;;;;;;;;;;;21.20;51.60;;;;;;5049818;28;1910;-69
2021/03/14 05:28:22;;;;;;;;;;;21.20;51.60;;;;;;5049268;28;1111;-70
2021/03/14 05:30:47;;;;;;;;;;;21.10;51.70;;;;;;5033925;28;1163;-70
2021/03/14 05:33:13;;;;;;;;;;;21.10;51.70;;;;;;5033963;28;1544;-69
2021/03/14 05:35:38;;;;;;;;;;;21.10;51.80;;;;;;5033870;28;1020;-70
2021/03/14 05:38:03;;;;;;;;;;;21.10;51.80;;;;;;5033540;28;1333;-70
2021/03/14 05:40:29;;;;;;;;;;;21.10;51.90;;;;;;5049523;28;1118;-69
2021/03/14 05:42:54;;;;;;;;;;;21.10;51.90;;;;;;5033490;28;1296;-70
2021/03/14 05:45:20;;;;;;;;;;;21.10;52.00;;;;;;5033975;28;1902;-69
2021/03/14 05:47:45;;;;;;;;;;;21.00;52.00;;;;;;5048737;28;1304;-69
2021/03/14 05:50:12;;;;;;;;;;;21.00;52.00;;;;;;5033827;28;1119;-70
2021/03/14 05:52:41;;;;;;;;;;;21.00;52.10;;;;;;5048596;28;1374;-70
2021/03/14 05:55:07;;;;;;;;;;;21.00;52.10;;;;;;5049025;28;1056;-70
2021/03/14 05:57:33;;;;;;;;;;;21.00;52.20;;;;;;5048306;28;1321;-69
2021/03/14 05:59:58;;;;;;;;;;;20.90;52.10;;;;;;5049266;28;1068;-70
2021/03/14 06:02:24;;;;;;;;;;;20.90;52.20;;;;;;5048998;28;1325;-70
2021/03/14 06:04:52;;;;;;;;;;;20.90;52.30;;;;;;5049049;28;1890;-69
2021/03/14 06:07:17;;;;;;;;;;;20.90;52.30;;;;;;5047699;28;1024;-71
2021/03/14 06:09:43;;;;;;;;;;;20.90;52.30;;;;;;5033699;28;1173;-69
2021/03/14 06:12:12;;;;;;;;;;;20.90;52.30;;;;;;5033301;28;1419;-69
2021/03/14 06:14:37;;;;;;;;;;;20.90;52.30;;;;;;5032523;28;1332;-70
2021/03/14 06:17:03;;;;;;;;;;;20.90;52.30;;;;;;5048813;28;1112;-70
2021/03/14 06:19:28;;;;;;;;;;;21.00;52.30;;;;;;5033594;28;1064;-70
2021/03/14 06:22:14;;;;;;;;;;;21.00;52.20;;;;;;5048274;28;1404;-69
2021/03/14 06:24:39;;;;;;;;;;;21.00;52.10;;;;;;5033148;28;1909;-69
2021/03/14 06:27:05;;;;;;;;;;;21.00;52.00;;;;;;5032229;28;1111;-70
2021/03/14 06:29:30;;;;;;;;;;;21.10;52.10;;;;;;5033181;28;1087;-70
2021/03/14 06:31:55;;;;;;;;;;;21.10;52.00;;;;;;5031455;28;1370;-69
2021/03/14 06:34:34;;;;;;;;;;;21.10;52.00;;;;;;5033030;28;1068;-70
2021/03/14 06:37:13;;;;;;;;;;;21.10;52.00;;;;;;5048464;28;921;-69
2021/03/14 06:39:39;;;;;;;;;;;21.10;52.00;;;;;;5047850;28;1055;-70
2021/03/14 06:42:05;;;;;;;;;;;21.10;52.00;;;;;;5047487;28;1324;-70
2021/03/14 06:44:32;;;;;;;;;;;21.10;52.00;;;;;;5034652;28;1902;-68
2021/03/14 06:46:57;;;;;;;;;;;21.10;52.00;;;;;;5029022;28;1079;-66
2021/03/14 06:49:23;;;;;;;;;;;21.10;52.10;;;;;;5025452;28;1231;-67
2021/03/14 06:51:49;;;;;;;;;;;21.00;52.00;;;;;;5039972;28;1326;-66
2021/03/14 06:54:21;;;;;;;;;;;21.10;52.10;;;;;;5049101;28;1382;-66
2021/03/14 06:56:59;;;;;;;;;;;21.00;52.00;;;;;;5031915;28;1068;-67
2021/03/14 06:59:24;;;;;;;;;;;21.00;52.10;;;;;;5030530;28;1290;-67
2021/03/14 07:02:06;;;;;;;;;;;21.00;52.10;;;;;;5046666;28;1287;-66
2021/03/14 07:04:32;;;;;;;;;;;21.00;52.20;;;;;;5031615;28;1958;-67
2021/03/14 07:06:58;;;;;;;;;;;21.00;52.20;;;;;;5030544;28;1469;-67
2021/03/14 07:09:23;;;;;;;;;;;21.00;52.30;;;;;;5031112;28;1296;-67
2021/03/14 07:11:49;;;;;;;;;;;20.90;52.20;;;;;;5031270;28;1327;-67
2021/03/14 07:14:15;;;;;;;;;;;20.90;52.30;;;;;;5046529;28;1470;-68
2021/03/14 07:16:41;;;;;;;;;;;20.90;52.30;;;;;;5030782;28;1092;-66
2021/03/14 07:19:07;;;;;;;;;;;20.90;52.30;;;;;;5041490;28;1443;-66
2021/03/14 07:21:32;;;;;;;;;;;20.90;52.40;;;;;;5060335;28;1204;-66
2021/03/14 07:23:58;;;;;;;;;;;20.80;52.40;;;;;;5047876;28;1299;-66
2021/03/14 07:26:39;;;;;;;;;;;20.90;52.40;;;;;;5047175;28;1906;-65
2021/03/14 07:29:05;;;;;;;;;;;20.80;52.50;;;;;;5027987;28;1159;-65
2021/03/14 07:31:31;;;;;;;;;;;20.80;52.50;;;;;;5034141;28;1306;-66
2021/03/14 07:33:56;;;;;;;;;;;20.80;52.50;;;;;;5034848;28;1044;-66
2021/03/14 07:36:21;;;;;;;;;;;20.80;52.60;;;;;;5033560;28;1145;-66
2021/03/14 07:38:47;;;;;;;;;;;20.80;52.60;;;;;;5028484;28;1041;-65
2021/03/14 07:41:12;;;;;;;;;;;20.80;52.60;;;;;;5032580;28;954;-65
2021/03/14 07:43:38;;;;;;;;;;;20.80;52.70;;;;;;5042496;28;1205;-66
2021/03/14 07:46:03;;;;;;;;;;;20.80;52.70;;;;;;5051352;28;1945;-66
2021/03/14 07:48:28;;;;;;;;;;;20.70;52.70;;;;;;5029625;28;1100;-66
2021/03/14 07:50:54;;;;;;;;;;;20.70;52.80;;;;;;5049112;28;1331;-67
2021/03/14 07:53:20;;;;;;;;;;;20.70;52.80;;;;;;5070247;28;1333;-67
2021/03/14 07:55:46;;;;;;;;;;;20.70;52.80;;;;;;5053569;28;1389;-68
2021/03/14 07:58:11;;;;;;;;;;;20.70;52.90;;;;;;5069535;28;1268;-68
2021/03/14 08:00:37;;;;;;;;;;;20.60;52.90;;;;;;5069721;28;1408;-68
2021/03/14 08:03:03;;;;;;;;;;;20.60;52.90;;;;;;5054823;28;1190;-68
2021/03/14 08:05:44;;;;;;;;;;;20.60;52.90;;;;;;5070026;28;1957;-68
2021/03/14 08:08:10;;;;;;;;;;;20.60;53.00;;;;;;5069242;28;1086;-68
2021/03/14 08:10:39;;;;;;;;;;;20.60;53.00;;;;;;5038283;28;1291;-68
2021/03/14 08:13:05;;;;;;;;;;;20.60;53.00;;;;;;5034054;28;1288;-67
2021/03/14 08:15:31;;;;;;;;;;;20.60;53.10;;;;;;5034479;28;1276;-68
2021/03/14 08:17:58;;;;;;;;;;;20.60;53.10;;;;;;5049676;28;1296;-68
2021/03/14 08:20:47;;;;;;;;;;;20.50;53.10;;;;;;5033967;28;1253;-68
2021/03/14 08:23:15;;;;;;;;;;;20.50;53.10;;;;;;5028045;28;1402;-68
2021/03/14 08:25:47;;;;;;;;;;;20.50;53.10;;;;;;5049993;28;1967;-68
2021/03/14 08:28:24;;;;;;;;;;;20.50;53.20;;;;;;5048950;28;1311;-68
2021/03/14 08:30:50;;;;;;;;;;;20.50;53.20;;;;;;5034196;28;1079;-67
2021/03/14 08:33:24;;;;;;;;;;;20.50;53.20;;;;;;5049619;28;1327;-68
2021/03/14 08:35:53;;;;;;;;;;;20.50;53.20;;;;;;5034584;28;1334;-68
2021/03/14 08:38:31;;;;;;;;;;;20.50;53.30;;;;;;5049130;28;1273;-67
2021/03/14 08:41:15;;;;;;;;;;;20.40;53.20;;;;;;5034017;28;1080;-68
2021/03/14 08:43:41;;;;;;;;;;;20.50;53.30;;;;;;5033701;28;1307;-68
2021/03/14 08:46:06;;;;;;;;;;;20.50;53.40;;;;;;5034257;28;1965;-68
2021/03/14 08:48:32;;;;;;;;;;;20.50;53.40;;;;;;5033671;28;1369;-67
2021/03/14 08:50:57;;;;;;;;;;;20.40;53.40;;;;;;5049190;28;1315;-68
2021/03/14 08:53:22;;;;;;;;;;;20.40;53.40;;;;;;5048094;28;1227;-67
2021/03/14 08:55:49;;;;;;;;;;;20.40;53.40;;;;;;5034184;28;1274;-66
2021/03/14 08:58:14;;;;;;;;;;;20.40;53.50;;;;;;5032240;28;1278;-67
2021/03/14 09:00:40;;;;;;;;;;;20.40;53.50;;;;;;5028224;28;1229;-67
2021/03/14 09:03:05;;;;;;;;;;;20.40;53.50;;;;;;5030844;28;1321;-66
2021/03/14 09:05:53;;;;;;;;;;;20.30;53.50;;;;;;5032983;28;1902;-66
2021/03/14 09:08:19;;;;;;;;;;;20.30;53.50;;;;;;5030141;28;1097;-66
2021/03/14 09:10:44;;;;;;;;;;;20.40;53.60;;;;;;5048500;28;1252;-67
2021/03/14 09:13:09;;;;;;;;;;;20.30;53.60;;;;;;5031542;28;1268;-66
2021/03/14 09:15:35;;;;;;;;;;;20.30;53.60;;;;;;5036128;28;1451;-66
2021/03/14 09:18:01;;;;;;;;;;;20.30;53.60;;;;;;5053017;28;1275;-67
2021/03/14 09:20:26;;;;;;;;;;;20.30;53.60;;;;;;5068708;28;1169;-66
2021/03/14 09:22:52;;;;;;;;;;;20.30;53.70;;;;;;5053356;28;1256;-66
2021/03/14 09:25:17;;;;;;;;;;;20.30;53.70;;;;;;5053201;28;1910;-67
2021/03/14 09:27:44;;;;;;;;;;;20.30;53.70;;;;;;5067690;28;1321;-67
2021/03/14 09:30:13;;;;;;;;;;;20.30;53.70;;;;;;5062022;28;1067;-69
2021/03/14 09:32:48;;;;;;;;;;;20.30;53.70;;;;;;5033688;28;1366;-67
2021/03/14 09:35:21;;;;;;;;;;;20.30;53.80;;;;;;5032999;28;1210;-67
2021/03/14 09:37:52;;;;;;;;;;;20.20;53.70;;;;;;5032623;28;1291;-66
2021/03/14 09:40:19;;;;;;;;;;;20.20;53.70;;;;;;5032877;28;1273;-67
2021/03/14 09:42:45;;;;;;;;;;;20.20;53.80;;;;;;5033956;28;1353;-66
2021/03/14 09:45:12;;;;;;;;;;;20.20;54.40;;;;;;5068372;28;1929;-66
2021/03/14 09:47:56;;;;;;;;;;;20.20;53.80;;;;;;5067490;28;1063;-67
2021/03/14 09:50:21;;;;;;;;;;;20.20;53.80;;;;;;5068411;28;1275;-67
2021/03/14 09:52:46;;;;;;;;;;;20.20;53.90;;;;;;5052829;28;1703;-67
2021/03/14 09:55:12;;;;;;;;;;;20.20;53.90;;;;;;5052789;28;1325;-67
2021/03/14 09:57:37;;;;;;;;;;;20.20;53.90;;;;;;5050435;28;1346;-66
2021/03/14 10:00:03;;;;;;;;;;;20.20;54.00;;;;;;5068194;28;1263;-66
2021/03/14 10:02:28;;;;;;;;;;;20.20;54.00;;;;;;5052818;28;1320;-67
2021/03/14 10:04:54;;;;;;;;;;;20.10;53.90;;;;;;5076733;22;1965;-64
2021/03/14 10:07:20;;;;;;;;;;;20.10;54.00;;;;;;5063939;28;1359;-63
2021/03/14 10:09:45;;;;;;;;;;;20.10;54.00;;;;;;5073622;28;1276;-63
2021/03/14 10:12:11;;;;;;;;;;;20.10;54.00;;;;;;5073713;28;1450;-65
2021/03/14 10:14:36;;;;;;;;;;;20.10;54.00;;;;;;5070471;28;1286;-67
2021/03/14 10:17:02;;;;;;;;;;;20.10;54.10;;;;;;5073133;28;1142;-63
2021/03/14 10:19:27;;;;;;;;;;;20.10;54.10;;;;;;5055669;28;1283;-64
2021/03/14 10:21:52;;;;;;;;;;;20.10;54.10;;;;;;5073532;28;1282;-64
2021/03/14 10:24:22;;;;;;;;;;;20.10;54.10;;;;;;5065724;28;1402;-62
2021/03/14 10:26:50;;;;;;;;;;;20.10;54.10;;;;;;5057211;28;1890;-63
2021/03/14 10:29:16;;;;;;;;;;;20.10;54.20;;;;;;5062784;28;1168;-63
2021/03/14 10:31:41;;;;;;;;;;;20.10;54.30;;;;;;5060397;28;1135;-65
2021/03/14 10:34:08;;;;;;;;;;;20.10;54.20;;;;;;5055680;28;1415;-65
2021/03/14 10:36:34;;;;;;;;;;;20.10;54.30;;;;;;5071099;28;1318;-66
2021/03/14 10:38:59;;;;;;;;;;;20.10;54.30;;;;;;5055491;28;1738;-63
2021/03/14 10:41:24;;;;;;;;;;;20.10;54.20;;;;;;5073211;28;1463;-64
2021/03/14 10:43:52;;;;;;;;;;;20.00;54.20;;;;;;5073498;28;1411;-63
2021/03/14 10:46:36;;;;;;;;;;;20.00;54.20;;;;;;5072997;28;1906;-63
2021/03/14 10:49:25;;;;;;;;;;;20.00;54.20;;;;;;5073218;28;1397;-63
2021/03/14 10:51:57;;;;;;;;;;;20.00;54.20;;;;;;5061752;28;1460;-63
2021/03/14 10:54:23;;;;;;;;;;;20.00;54.20;;;;;;5072806;28;1594;-66
2021/03/14 10:56:49;;;;;;;;;;;20.00;54.20;;;;;;5054862;28;1670;-65
2021/03/14 10:59:21;;;;;;;;;;;20.00;54.20;;;;;;5055111;28;1398;-66
2021/03/14 11:01:48;;;;;;;;;;;20.00;54.20;;;;;;5055036;28;1318;-65
2021/03/14 11:04:13;;;;;;;;;;;20.00;54.20;;;;;;5055147;28;1516;-66
2021/03/14 11:06:39;;;;;;;;;;;20.00;54.20;;;;;;5054952;28;1950;-66
2021/03/14 11:09:05;;;;;;;;;;;20.00;54.20;;;;;;5068591;28;1361;-66
2021/03/14 11:11:40;;;;;;;;;;;20.00;54.20;;;;;;5051487;28;1057;-66
2021/03/14 11:14:25;;;;;;;;;;;20.00;54.20;;;;;;5051665;28;1417;-65
2021/03/14 11:17:07;;;;;;;;;;;20.00;54.30;;;;;;5067055;28;1412;-63
2021/03/14 11:19:32;;;;;;;;;;;20.00;54.20;;;;;;5054984;28;1382;-62
2021/03/14 11:21:57;;;;;;;;;;;20.00;54.20;;;;;;5054487;28;1455;-63
2021/03/14 11:24:23;;;;;;;;;;;20.00;54.20;;;;;;5072796;28;1433;-63
2021/03/14 11:26:48;;;;;;;;;;;20.00;54.20;;;;;;5072904;28;1909;-62
2021/03/14 11:29:14;;;;;;;;;;;20.00;54.20;;;;;;5072574;28;1361;-63
2021/03/14 11:31:39;;;;;;;;;;;20.00;54.20;;;;;;5052644;28;1445;-63
2021/03/14 11:34:05;;;;;;;;;;;20.00;54.20;;;;;;5072444;28;1264;-63
2021/03/14 11:36:30;;;;;;;;;;;20.00;54.20;;;;;;5054710;28;1730;-63
2021/03/14 11:38:55;;;;;;;;;;;20.00;54.80;;;;;;5072251;28;1191;-63
2021/03/14 11:41:21;;;;;;;;;;;20.00;54.30;;;;;;5063078;28;1588;-63
2021/03/14 11:43:46;;;;;;;;;;;20.00;54.30;;;;;;5072229;28;1330;-64
2021/03/14 11:46:12;;;;;;;;;;;19.90;54.20;;;;;;5072349;28;1906;-64
2021/03/14 11:48:37;;;;;;;;;;;20.00;54.30;;;;;;5072038;28;1119;-62
2021/03/14 11:51:03;;;;;;;;;;;19.90;54.30;;;;;;5072317;28;1322;-63
2021/03/14 11:53:28;;;;;;;;;;;19.90;54.30;;;;;;5072433;28;1346;-63
2021/03/14 11:55:54;;;;;;;;;;;19.90;54.30;;;;;;5072237;28;1343;-63
2021/03/14 11:58:19;;;;;;;;;;;19.90;54.30;;;;;;5072211;28;1287;-63
2021/03/14 12:00:45;;;;;;;;;;;19.90;54.30;;;;;;5072305;28;1363;-63
2021/03/14 12:03:10;;;;;;;;;;;19.90;54.30;;;;;;5072564;28;1269;-63
2021/03/14 12:05:36;;;;;;;;;;;19.90;54.30;;;;;;5053809;28;1910;-63
2021/03/14 12:08:01;;;;;;;;;;;19.90;54.90;;;;;;5072008;28;1265;-63
2021/03/14 12:10:27;;;;;;;;;;;19.90;54.30;;;;;;5058947;28;1229;-63
2021/03/14 12:12:52;;;;;;;;;;;19.90;54.30;;;;;;5072155;28;1300;-63
2021/03/14 12:15:18;;;;;;;;;;;19.90;54.10;;;;;;5063703;28;1556;-65
2021/03/14 12:17:43;;;;;;;;;;;19.90;54.10;;;;;;5072199;28;1123;-65
2021/03/14 12:20:09;;;;;;;;;;;19.90;54.10;;;;;;5071818;28;1330;-64
2021/03/14 12:22:34;;;;;;;;;;;19.90;54.20;;;;;;5054266;28;1084;-64
2021/03/14 12:25:00;;;;;;;;;;;19.90;54.10;;;;;;5072004;28;1906;-65
2021/03/14 12:27:25;;;;;;;;;;;19.90;54.10;;;;;;5071555;28;1308;-65
2021/03/14 12:29:51;;;;;;;;;;;19.90;54.20;;;;;;5072321;28;1333;-64
2021/03/14 12:32:16;;;;;;;;;;;19.90;54.10;;;;;;5075788;28;1347;-65
2021/03/14 12:34:42;;;;;;;;;;;19.90;54.10;;;;;;5075516;28;1342;-65
2021/03/14 12:37:09;;;;;;;;;;;19.90;54.20;;;;;;5075675;28;1268;-65
2021/03/14 12:39:35;;;;;;;;;;;19.90;54.20;;;;;;5075876;28;1322;-65
2021/03/14 12:42:00;;;;;;;;;;;19.90;54.30;;;;;;5075460;28;1298;-65
2021/03/14 12:44:25;;;;;;;;;;;19.90;54.30;;;;;;5075246;28;1273;-64
2021/03/14 12:46:51;;;;;;;;;;;19.90;54.30;;;;;;5051196;28;1898;-65
2021/03/14 12:49:16;;;;;;;;;;;19.90;54.30;;;;;;5064394;28;995;-65
2021/03/14 12:51:42;;;;;;;;;;;19.90;54.30;;;;;;5074783;28;1264;-64
2021/03/14 12:54:07;;;;;;;;;;;19.90;54.30;;;;;;5050218;28;1347;-65
2021/03/14 12:56:33;;;;;;;;;;;19.90;54.30;;;;;;5074687;28;1298;-65
2021/03/14 12:59:01;;;;;;;;;;;19.90;54.30;;;;;;5069148;28;2129;-66
2021/03/14 13:01:26;;;;;;;;;;;19.90;54.30;;;;;;5055701;28;1348;-66
2021/03/14 13:03:52;;;;;;;;;;;19.90;54.30;;;;;;5056838;28;1301;-65
2021/03/14 13:06:18;;;;;;;;;;;19.90;54.20;;;;;;5074778;28;1906;-65
2021/03/14 13:08:43;;;;;;;;;;;20.00;54.20;;;;;;5055609;28;1358;-66
2021/03/14 13:11:09;;;;;;;;;;;20.10;54.70;;;;;;5062842;28;1048;-65
2021/03/14 13:13:34;;;;;;;;;;;20.10;54.00;;;;;;5074816;28;1056;-67
2021/03/14 13:16:00;;;;;;;;;;;20.30;53.80;;;;;;5074849;28;1284;-66
2021/03/14 13:18:25;;;;;;;;;;;20.40;53.70;;;;;;5074436;28;1264;-65
2021/03/14 13:20:51;;;;;;;;;;;20.40;53.40;;;;;;5074576;28;1288;-65
2021/03/14 13:23:17;;;;;;;;;;;20.50;53.20;;;;;;5056905;28;1091;-66
2021/03/14 13:25:43;;;;;;;;;;;20.60;53.00;;;;;;5074529;28;1965;-66
2021/03/14 13:28:08;;;;;;;;;;;20.70;52.80;;;;;;5074575;28;1311;-66
2021/03/14 13:30:34;;;;;;;;;;;20.80;52.70;;;;;;5073560;28;1079;-66
2021/03/14 13:32:59;;;;;;;;;;;20.80;52.50;;;;;;5074455;28;1257;-65
2021/03/14 13:35:25;;;;;;;;;;;20.90;52.40;;;;;;5074469;28;1354;-66
2021/03/14 13:37:50;;;;;;;;;;;20.90;52.30;;;;;;5074225;28;1326;-66
2021/03/14 13:40:16;;;;;;;;;;;20.90;52.20;;;;;;5073220;28;1330;-66
2021/03/14 13:42:42;;;;;;;;;;;21.00;52.10;;;;;;5074488;28;1424;-65
2021/03/14 13:45:08;;;;;;;;;;;21.00;52.00;;;;;;5074174;28;1898;-66
2021/03/14 13:47:33;;;;;;;;;;;21.10;52.10;;;;;;5073919;28;1349;-65
2021/03/14 13:49:58;;;;;;;;;;;21.10;52.30;;;;;;5074380;28;1370;-66
2021/03/14 13:52:24;;;;;;;;;;;21.10;51.90;;;;;;5074106;28;1223;-65
2021/03/14 13:54:49;;;;;;;;;;;21.10;51.90;;;;;;5074411;28;1318;-66
2021/03/14 13:57:15;;;;;;;;;;;21.10;51.80;;;;;;5073868;28;1246;-66
2021/03/14 13:59:40;;;;;;;;;;;21.10;52.40;;;;;;5074275;28;1331;-65
2021/03/14 14:02:06;;;;;;;;;;;21.10;51.80;;;;;;5073823;28;1270;-66
2021/03/14 14:04:31;;;;;;;;;;;21.20;51.90;;;;;;5073867;28;1283;-66
2021/03/14 14:06:57;;;;;;;;;;;21.20;51.80;;;;;;5073765;28;1910;-65
2021/03/14 14:09:22;;;;;;;;;;;21.10;51.80;;;;;;5067209;28;1450;-65
2021/03/14 14:11:47;;;;;;;;;;;21.20;51.80;;;;;;5066760;28;1271;-65
2021/03/14 14:14:13;;;;;;;;;;;21.20;51.90;;;;;;5073873;28;1373;-65
2021/03/14 14:16:39;;;;;;;;;;;21.10;51.90;;;;;;5073237;28;1142;-65
2021/03/14 14:19:04;;;;;;;;;;;21.10;51.90;;;;;;5073484;28;1267;-65
2021/03/14 14:21:30;;;;;;;;;;;21.10;51.90;;;;;;5073987;28;1316;-66
2021/03/14 14:23:55;;;;;;;;;;;21.10;51.90;;;;;;5073329;28;1256;-65
2021/03/14 14:26:21;;;;;;;;;;;21.10;52.00;;;;;;5055766;28;1902;-66